createdAt,value
2023-05-06T00:01:34.420Z,8.63
2023-05-06T00:04:00.983Z,8.86
2023-05-06T00:06:28.744Z,8.49
2023-05-06T00:08:55.267Z,8.46
2023-05-06T00:11:21.733Z,8.48
2023-05-06T00:13:48.210Z,8.72
2023-05-06T00:16:15.061Z,8.40
2023-05-06T00:18:42.099Z,8.49
2023-05-06T00:21:08.597Z,8.31
2023-05-06T00:23:35.076Z,8.47
2023-05-06T00:26:01.568Z,9.19
2023-05-06T00:28:28.073Z,9.04
2023-05-06T00:30:54.524Z,8.45
2023-05-06T00:33:21.143Z,8.85
2023-05-06T00:35:48.250Z,8.47
2023-05-06T00:38:17.645Z,8.81
2023-05-06T00:40:44.178Z,8.65
2023-05-06T00:43:10.674Z,8.81
2023-05-06T00:45:37.541Z,8.47
2023-05-06T00:48:05.335Z,8.66
2023-05-06T00:50:33.317Z,8.50
2023-05-06T00:53:00.674Z,8.67
2023-05-06T00:55:27.436Z,8.50
2023-05-06T00:57:54.547Z,8.95
2023-05-06T01:00:21.547Z,8.74
2023-05-06T01:02:48.889Z,8.30
2023-05-06T01:05:19.373Z,8.67
2023-05-06T01:07:48.904Z,8.85
2023-05-06T01:10:27.463Z,9.04
2023-05-06T01:13:19.684Z,8.85
2023-05-06T01:15:47.981Z,8.38
2023-05-06T01:18:18.126Z,8.26
2023-05-06T01:20:49.854Z,8.09
2023-05-06T01:23:17.293Z,8.93
2023-05-06T01:25:44.116Z,8.88
2023-05-06T01:28:12.062Z,8.97
2023-05-06T01:31:05.778Z,8.93
2023-05-06T01:33:37.368Z,8.66
2023-05-06T01:36:13.921Z,8.62
2023-05-06T01:38:54.465Z,8.74
2023-05-06T01:41:21.346Z,8.35
2023-05-06T01:43:48.329Z,8.54
2023-05-06T01:46:22.646Z,8.42
2023-05-06T01:48:55.459Z,8.02
2023-05-06T01:51:23.559Z,8.61
2023-05-06T01:53:51.001Z,8.85
2023-05-06T01:56:17.529Z,8.58
2023-05-06T01:58:44.028Z,8.38
2023-05-06T02:01:10.543Z,8.28
2023-05-06T02:03:37.591Z,8.49
2023-05-06T02:06:04.861Z,8.35
2023-05-06T02:08:31.439Z,8.20
2023-05-06T02:10:57.890Z,9.10
2023-05-06T02:13:24.418Z,8.54
2023-05-06T02:15:54.755Z,8.42
2023-05-06T02:18:21.660Z,8.41
2023-05-06T02:20:48.128Z,8.54
2023-05-06T02:23:14.658Z,8.49
2023-05-06T02:25:41.139Z,8.62
2023-05-06T02:28:07.631Z,8.63
2023-05-06T02:30:34.658Z,8.47
2023-05-06T02:33:01.250Z,8.70
2023-05-06T02:35:27.818Z,9.25
2023-05-06T02:37:54.310Z,8.89
2023-05-06T02:40:20.805Z,8.72
2023-05-06T02:42:47.382Z,8.98
2023-05-06T02:45:13.942Z,8.61
2023-05-06T02:47:40.665Z,8.60
2023-05-06T02:50:07.570Z,8.32
2023-05-06T02:52:34.988Z,8.62
2023-05-06T02:55:01.939Z,8.47
2023-05-06T02:57:28.648Z,8.54
2023-05-06T02:59:55.213Z,8.36
2023-05-06T03:02:21.803Z,8.34
2023-05-06T03:04:48.342Z,8.54
2023-05-06T03:07:14.779Z,8.34
2023-05-06T03:09:41.303Z,8.66
2023-05-06T03:12:07.734Z,8.22
2023-05-06T03:14:34.209Z,8.38
2023-05-06T03:17:00.720Z,8.60
2023-05-06T03:19:27.232Z,8.47
2023-05-06T03:21:53.760Z,8.41
2023-05-06T03:24:20.339Z,8.53
2023-05-06T03:26:46.767Z,8.49
2023-05-06T03:29:13.230Z,8.81
2023-05-06T03:31:39.811Z,8.87
2023-05-06T03:34:06.335Z,8.70
2023-05-06T03:36:33.112Z,9.32
2023-05-06T03:38:59.617Z,8.74
2023-05-06T03:41:26.138Z,8.65
2023-05-06T03:43:54.143Z,8.14
2023-05-06T03:46:20.623Z,8.64
2023-05-06T03:48:47.152Z,8.77
2023-05-06T03:51:13.770Z,8.70
2023-05-06T03:53:40.294Z,8.90
2023-05-06T03:56:07.177Z,8.52
2023-05-06T03:58:33.656Z,8.96
2023-05-06T04:01:01.060Z,8.67
2023-05-06T04:03:27.807Z,8.87
2023-05-06T04:05:54.357Z,8.77
2023-05-06T04:08:20.914Z,8.54
2023-05-06T04:10:47.610Z,8.44
2023-05-06T04:13:14.178Z,8.41
2023-05-06T04:15:41.535Z,8.89
2023-05-06T04:18:08.332Z,8.58
2023-05-06T04:20:34.983Z,8.47
2023-05-06T04:23:01.867Z,8.58
2023-05-06T04:25:28.801Z,8.35
2023-05-06T04:27:55.270Z,8.66
2023-05-06T04:30:22.563Z,8.58
2023-05-06T04:32:49.113Z,8.57
2023-05-06T04:35:16.316Z,8.50
2023-05-06T04:37:43.525Z,8.81
2023-05-06T04:40:12.234Z,8.56
2023-05-06T04:42:38.892Z,8.07
2023-05-06T04:45:05.795Z,8.80
2023-05-06T04:47:32.432Z,9.04
2023-05-06T04:49:58.988Z,8.84
2023-05-06T04:52:26.209Z,8.61
2023-05-06T04:54:52.680Z,8.82
2023-05-06T04:57:19.111Z,9.00
2023-05-06T04:59:46.353Z,8.74
2023-05-06T05:02:12.974Z,8.62
2023-05-06T05:04:39.525Z,8.29
2023-05-06T05:07:07.405Z,8.21
2023-05-06T05:09:35.027Z,8.74
2023-05-06T05:12:02.604Z,8.51
2023-05-06T05:14:29.072Z,9.13
2023-05-06T05:16:55.834Z,8.61
2023-05-06T05:19:22.374Z,8.74
2023-05-06T05:21:49.262Z,8.52
2023-05-06T05:24:16.043Z,8.31
2023-05-06T05:26:42.502Z,8.11
2023-05-06T05:29:08.981Z,8.81
2023-05-06T05:31:35.481Z,9.22
2023-05-06T05:34:02.009Z,8.77
2023-05-06T05:36:28.524Z,9.00
2023-05-06T05:38:54.998Z,8.92
2023-05-06T05:41:21.668Z,9.18
2023-05-06T05:43:48.181Z,8.96
2023-05-06T05:46:14.703Z,8.78
2023-05-06T05:48:41.334Z,8.81
2023-05-06T05:51:07.800Z,8.87
2023-05-06T05:53:34.261Z,8.79
2023-05-06T05:56:00.742Z,9.10
2023-05-06T05:58:27.242Z,9.69
2023-05-06T06:00:53.907Z,8.81
2023-05-06T06:03:20.475Z,8.97
2023-05-06T06:05:49.304Z,9.09
2023-05-06T06:08:17.417Z,8.88
2023-05-06T06:10:43.872Z,8.81
2023-05-06T06:13:10.385Z,8.43
2023-05-06T06:15:36.927Z,8.51
2023-05-06T06:18:03.523Z,8.63
2023-05-06T06:20:30.058Z,8.35
2023-05-06T06:22:56.514Z,8.91
2023-05-06T06:25:22.978Z,8.60
2023-05-06T06:27:49.425Z,9.19
2023-05-06T06:30:16.038Z,8.61
2023-05-06T06:32:50.098Z,8.36
2023-05-06T06:35:17.114Z,9.04
2023-05-06T06:37:43.615Z,9.08
2023-05-06T06:40:11.290Z,9.12
2023-05-06T06:42:38.024Z,9.02
2023-05-06T06:45:05.293Z,8.90
2023-05-06T06:47:31.735Z,9.05
2023-05-06T06:49:58.223Z,9.18
2023-05-06T06:52:24.775Z,9.00
2023-05-06T06:54:51.261Z,8.78
2023-05-06T06:57:17.842Z,9.05
2023-05-06T06:59:44.702Z,8.76
2023-05-06T07:02:11.138Z,8.68
2023-05-06T07:04:37.702Z,8.89
2023-05-06T07:07:04.187Z,8.76
2023-05-06T07:09:30.626Z,9.22
2023-05-06T07:11:58.585Z,8.80
2023-05-06T07:14:25.882Z,9.11
2023-05-06T07:16:52.355Z,8.91
2023-05-06T07:19:18.952Z,9.07
2023-05-06T07:21:45.422Z,9.33
2023-05-06T07:24:11.908Z,9.39
2023-05-06T07:26:38.480Z,9.26
2023-05-06T07:29:04.943Z,9.32
2023-05-06T07:31:34.624Z,9.12
2023-05-06T07:34:01.226Z,9.37
2023-05-06T07:36:28.732Z,8.99
2023-05-06T07:38:55.290Z,8.58
2023-05-06T07:41:21.735Z,9.18
2023-05-06T07:43:48.173Z,9.02
2023-05-06T07:46:14.658Z,9.42
2023-05-06T07:48:41.190Z,9.77
2023-05-06T07:51:07.677Z,10.01
2023-05-06T07:53:34.161Z,9.38
2023-05-06T07:56:02.561Z,8.85
2023-05-06T07:58:30.225Z,9.82
2023-05-06T08:00:56.737Z,9.53
2023-05-06T08:03:23.604Z,9.55
2023-05-06T08:05:53.581Z,9.45
2023-05-06T08:08:20.109Z,9.40
2023-05-06T08:10:46.754Z,9.16
2023-05-06T08:13:13.306Z,9.74
2023-05-06T08:15:39.946Z,9.06
2023-05-06T08:18:21.103Z,9.35
2023-05-06T08:20:48.573Z,9.21
2023-05-06T08:23:15.129Z,9.64
2023-05-06T08:25:41.640Z,9.48
2023-05-06T08:28:08.099Z,9.59
2023-05-06T08:30:34.584Z,9.44
2023-05-06T08:33:01.921Z,9.39
2023-05-06T08:35:28.403Z,9.60
2023-05-06T08:37:54.848Z,9.77
2023-05-06T08:40:22.513Z,9.79
2023-05-06T08:42:49.940Z,9.98
2023-05-06T08:45:19.802Z,9.99
2023-05-06T08:47:47.435Z,10.02
2023-05-06T08:50:14.115Z,10.31
2023-05-06T08:52:40.637Z,9.67
2023-05-06T08:55:08.100Z,9.52
2023-05-06T08:57:35.123Z,9.95
2023-05-06T09:00:01.944Z,10.25
2023-05-06T09:02:28.618Z,9.75
2023-05-06T09:04:56.556Z,9.69
2023-05-06T09:07:23.988Z,9.70
2023-05-06T09:09:51.637Z,9.91
2023-05-06T09:12:18.568Z,10.17
2023-05-06T09:14:46.701Z,10.28
2023-05-06T09:17:27.890Z,9.68
2023-05-06T09:19:56.966Z,9.82
2023-05-06T09:22:24.710Z,10.14
2023-05-06T09:24:57.655Z,10.32
2023-05-06T09:27:28.415Z,9.91
2023-05-06T09:30:08.782Z,9.90
2023-05-06T09:32:38.359Z,10.13
2023-05-06T09:35:07.323Z,10.74
2023-05-06T09:37:33.938Z,10.46
2023-05-06T09:40:01.133Z,10.11
2023-05-06T09:42:29.636Z,10.34
2023-05-06T09:45:00.548Z,10.31
2023-05-06T09:47:29.957Z,10.32
2023-05-06T09:49:58.393Z,10.12
2023-05-06T09:52:27.314Z,10.10
2023-05-06T09:54:54.828Z,9.82
2023-05-06T09:57:22.350Z,9.60
2023-05-06T09:59:49.186Z,10.40
2023-05-06T10:02:16.403Z,10.56
2023-05-06T10:04:43.603Z,10.45
2023-05-06T10:07:13.754Z,10.55
2023-05-06T10:09:41.146Z,10.36
2023-05-06T10:12:08.862Z,10.45
2023-05-06T10:14:36.789Z,10.23
2023-05-06T10:17:08.553Z,10.27
2023-05-06T10:19:35.616Z,10.36
2023-05-06T10:22:34.990Z,10.23
2023-05-06T10:25:13.084Z,10.02
2023-05-06T10:27:43.475Z,10.34
2023-05-06T10:30:11.379Z,10.19
2023-05-06T10:32:43.095Z,10.46
2023-05-06T10:35:16.630Z,10.19
2023-05-06T10:37:43.760Z,10.24
2023-05-06T10:40:11.419Z,10.09
2023-05-06T10:42:37.880Z,10.13
2023-05-06T10:45:05.936Z,10.55
2023-05-06T10:47:57.699Z,10.35
2023-05-06T10:50:25.440Z,10.13
2023-05-06T10:52:56.589Z,10.41
2023-05-06T10:55:37.737Z,10.47
2023-05-06T10:58:12.162Z,10.02
2023-05-06T11:00:38.656Z,10.44
2023-05-06T11:03:07.587Z,10.79
2023-05-06T11:05:51.882Z,10.75
2023-05-06T11:08:23.719Z,10.71
2023-05-06T11:10:50.219Z,10.87
2023-05-06T11:13:27.666Z,10.45
2023-05-06T11:15:55.664Z,10.34
2023-05-06T11:18:25.153Z,10.59
2023-05-06T11:20:52.510Z,11.06
2023-05-06T11:23:19.078Z,10.76
2023-05-06T11:25:47.264Z,10.35
2023-05-06T11:28:14.726Z,10.51
2023-05-06T11:30:43.728Z,10.32
2023-05-06T11:33:19.968Z,10.42
2023-05-06T11:35:46.466Z,10.68
2023-05-06T11:38:13.022Z,10.46
2023-05-06T11:40:41.935Z,10.53
2023-05-06T11:43:13.076Z,10.11
2023-05-06T11:45:47.299Z,10.13
2023-05-06T11:48:18.039Z,10.29
2023-05-06T11:50:48.671Z,10.40
2023-05-06T11:53:18.952Z,10.52
2023-05-06T11:55:46.417Z,10.66
2023-05-06T11:58:17.007Z,10.38
2023-05-06T12:01:01.458Z,10.30
2023-05-06T12:03:30.158Z,10.66
2023-05-06T12:05:57.161Z,10.22
2023-05-06T12:08:27.868Z,10.67
2023-05-06T12:10:57.030Z,10.94
2023-05-06T12:13:23.672Z,11.18
2023-05-06T12:15:50.483Z,11.41
2023-05-06T12:18:17.112Z,11.40
2023-05-06T12:20:44.373Z,11.23
2023-05-06T12:23:15.395Z,11.36
2023-05-06T12:25:43.130Z,11.30
2023-05-06T12:28:20.859Z,11.04
2023-05-06T12:30:47.433Z,11.58
2023-05-06T12:33:13.929Z,11.21
2023-05-06T12:35:41.101Z,11.20
2023-05-06T12:38:25.993Z,10.56
2023-05-06T12:40:54.550Z,10.35
2023-05-06T12:43:29.391Z,10.65
2023-05-06T12:46:06.745Z,10.72
2023-05-06T12:48:33.515Z,10.83
2023-05-06T12:51:00.057Z,10.80
2023-05-06T12:53:34.686Z,10.81
2023-05-06T12:56:01.168Z,11.48
2023-05-06T12:58:37.654Z,11.04
2023-05-06T13:01:04.586Z,10.87
2023-05-06T13:03:31.156Z,10.34
2023-05-06T13:05:57.756Z,10.98
2023-05-06T13:08:24.205Z,10.71
2023-05-06T13:10:50.995Z,10.99
2023-05-06T13:13:17.463Z,10.63
2023-05-06T13:15:43.947Z,11.06
2023-05-06T13:18:10.449Z,11.08
2023-05-06T13:20:36.945Z,10.99
2023-05-06T13:23:03.884Z,10.34
2023-05-06T13:25:30.358Z,10.51
2023-05-06T13:27:56.801Z,10.49
2023-05-06T13:30:23.299Z,10.58
2023-05-06T13:32:49.803Z,10.99
2023-05-06T13:35:16.339Z,11.07
2023-05-06T13:37:42.882Z,11.08
2023-05-06T13:40:10.241Z,10.47
2023-05-06T13:42:36.829Z,10.40
2023-05-06T13:45:03.446Z,11.18
2023-05-06T13:47:29.900Z,11.63
2023-05-06T13:49:56.364Z,11.45
2023-05-06T13:52:22.806Z,10.66
2023-05-06T13:54:49.606Z,11.29
2023-05-06T13:57:16.045Z,11.26
2023-05-06T13:59:42.545Z,11.45
2023-05-06T14:02:09.996Z,10.87
2023-05-06T14:04:36.728Z,10.61
2023-05-06T14:07:03.257Z,11.30
2023-05-06T14:09:29.699Z,10.42
2023-05-06T14:11:56.138Z,10.78
2023-05-06T14:14:22.599Z,11.29
2023-05-06T14:16:49.088Z,11.14
2023-05-06T14:19:15.546Z,11.13
2023-05-06T14:21:41.988Z,10.64
2023-05-06T14:24:10.176Z,10.64
2023-05-06T14:26:36.731Z,10.81
2023-05-06T14:29:03.831Z,10.75
2023-05-06T14:31:30.426Z,10.87
2023-05-06T14:33:57.378Z,11.53
2023-05-06T14:36:24.924Z,11.28
2023-05-06T14:38:51.377Z,11.41
2023-05-06T14:41:17.842Z,10.89
2023-05-06T14:43:44.297Z,10.85
2023-05-06T14:46:11.598Z,11.22
2023-05-06T14:48:38.091Z,11.36
2023-05-06T14:51:05.046Z,11.16
2023-05-06T14:53:31.480Z,11.45
2023-05-06T14:55:57.918Z,11.44
2023-05-06T14:58:24.486Z,11.23
2023-05-06T15:00:50.966Z,11.16
2023-05-06T15:03:17.452Z,11.43
2023-05-06T15:05:43.947Z,11.44
2023-05-06T15:08:10.461Z,11.36
2023-05-06T15:10:37.044Z,11.25
2023-05-06T15:13:03.743Z,11.31
2023-05-06T15:15:30.390Z,10.74
2023-05-06T15:17:56.901Z,11.53
2023-05-06T15:20:23.471Z,11.14
2023-05-06T15:22:50.089Z,10.75
2023-05-06T15:25:30.400Z,10.41
2023-05-06T15:28:00.404Z,10.99
2023-05-06T15:30:27.483Z,10.69
2023-05-06T15:32:54.010Z,11.08
2023-05-06T15:35:22.324Z,11.02
2023-05-06T15:37:55.905Z,10.76
2023-05-06T15:40:27.884Z,11.40
2023-05-06T15:42:55.650Z,10.91
2023-05-06T15:45:22.466Z,11.66
2023-05-06T15:47:49.029Z,11.33
2023-05-06T15:50:29.002Z,11.39
2023-05-06T15:52:59.664Z,11.20
2023-05-06T15:55:26.651Z,11.04
2023-05-06T15:57:54.600Z,11.25
2023-05-06T16:00:21.987Z,11.06
2023-05-06T16:02:48.684Z,11.40
2023-05-06T16:05:15.786Z,10.74
2023-05-06T16:07:42.507Z,11.12
2023-05-06T16:10:09.241Z,11.28
2023-05-06T16:12:36.411Z,11.47
2023-05-06T16:15:03.324Z,11.26
2023-05-06T16:17:30.487Z,11.64
2023-05-06T16:19:57.300Z,11.47
2023-05-06T16:22:23.774Z,10.79
2023-05-06T16:24:50.247Z,11.13
2023-05-06T16:27:16.723Z,11.29
2023-05-06T16:29:43.185Z,11.07
2023-05-06T16:32:09.676Z,10.95
2023-05-06T16:34:38.881Z,10.91
2023-05-06T16:37:07.641Z,10.92
2023-05-06T16:39:34.150Z,11.02
2023-05-06T16:42:01.168Z,11.32
2023-05-06T16:44:29.053Z,10.94
2023-05-06T16:46:56.087Z,11.52
2023-05-06T16:49:22.678Z,10.95
2023-05-06T16:51:49.158Z,11.12
2023-05-06T16:54:15.696Z,10.86
2023-05-06T16:56:51.539Z,11.40
2023-05-06T16:59:21.462Z,10.84
2023-05-06T17:01:48.737Z,11.73
2023-05-06T17:04:18.745Z,11.63
2023-05-06T17:06:45.228Z,11.18
2023-05-06T17:09:12.220Z,11.52
2023-05-06T17:11:38.704Z,11.42
2023-05-06T17:14:05.257Z,11.64
2023-05-06T17:16:31.805Z,11.51
2023-05-06T17:18:58.358Z,11.50
2023-05-06T17:21:24.990Z,11.22
2023-05-06T17:23:54.423Z,10.96
2023-05-06T17:26:21.447Z,11.24
2023-05-06T17:28:48.323Z,10.78
2023-05-06T17:31:15.745Z,11.15
2023-05-06T17:33:42.267Z,11.32
2023-05-06T17:36:09.094Z,11.53
2023-05-06T17:38:35.602Z,11.07
2023-05-06T17:41:02.146Z,11.16
2023-05-06T17:43:28.901Z,11.04
2023-05-06T17:45:55.992Z,11.11
2023-05-06T17:48:22.723Z,11.21
2023-05-06T17:50:49.179Z,11.01
2023-05-06T17:53:15.748Z,11.41
2023-05-06T17:55:42.200Z,10.91
2023-05-06T17:58:08.686Z,11.19
2023-05-06T18:00:37.883Z,11.29
2023-05-06T18:03:04.591Z,11.87
2023-05-06T18:05:31.170Z,11.33
2023-05-06T18:07:58.312Z,11.14
2023-05-06T18:10:24.779Z,11.27
2023-05-06T18:12:51.314Z,11.69
2023-05-06T18:15:17.848Z,11.66
2023-05-06T18:17:44.352Z,11.46
2023-05-06T18:20:11.552Z,11.37
2023-05-06T18:22:39.036Z,11.31
2023-05-06T18:25:06.630Z,11.39
2023-05-06T18:27:33.046Z,11.52
2023-05-06T18:29:59.524Z,11.44
2023-05-06T18:32:26.203Z,11.94
2023-05-06T18:34:52.781Z,12.09
2023-05-06T18:37:19.216Z,11.15
2023-05-06T18:39:46.034Z,11.81
2023-05-06T18:42:12.458Z,11.77
2023-05-06T18:44:38.922Z,11.27
2023-05-06T18:47:05.692Z,11.54
2023-05-06T18:49:32.238Z,11.37
2023-05-06T18:51:58.827Z,11.79
2023-05-06T18:54:25.333Z,11.72
2023-05-06T18:56:51.928Z,11.57
2023-05-06T18:59:21.622Z,11.43
2023-05-06T19:01:48.125Z,11.68
2023-05-06T19:04:14.824Z,11.18
2023-05-06T19:06:41.593Z,11.71
2023-05-06T19:09:08.275Z,11.35
2023-05-06T19:11:35.025Z,11.27
2023-05-06T19:14:03.661Z,11.77
2023-05-06T19:16:30.323Z,11.76
2023-05-06T19:18:56.784Z,11.70
2023-05-06T19:21:23.259Z,11.43
2023-05-06T19:23:50.127Z,11.39
2023-05-06T19:26:16.639Z,11.67
2023-05-06T19:28:43.275Z,11.70
2023-05-06T19:31:10.778Z,12.09
2023-05-06T19:33:42.575Z,10.77
2023-05-06T19:36:09.421Z,11.53
2023-05-06T19:38:35.972Z,11.36
2023-05-06T19:41:03.023Z,10.94
2023-05-06T19:43:31.463Z,11.14
2023-05-06T19:45:58.010Z,11.60
2023-05-06T19:48:25.201Z,11.51
2023-05-06T19:50:54.596Z,11.45
2023-05-06T19:53:25.746Z,11.60
2023-05-06T19:55:53.779Z,11.63
2023-05-06T19:58:20.369Z,11.45
2023-05-06T20:00:46.870Z,11.11
2023-05-06T20:03:13.859Z,11.19
2023-05-06T20:05:41.272Z,10.64
2023-05-06T20:08:10.983Z,10.55
2023-05-06T20:10:38.118Z,11.05
2023-05-06T20:13:05.006Z,11.03
2023-05-06T20:15:33.798Z,11.35
2023-05-06T20:18:00.454Z,11.37
2023-05-06T20:20:34.097Z,10.92
2023-05-06T20:23:04.176Z,10.59
2023-05-06T20:25:31.188Z,11.41
2023-05-06T20:27:58.752Z,11.13
2023-05-06T20:30:26.513Z,11.17
2023-05-06T20:32:53.098Z,10.85
2023-05-06T20:35:19.709Z,11.31
2023-05-06T20:37:48.157Z,11.61
2023-05-06T20:40:15.398Z,11.19
2023-05-06T20:42:42.384Z,10.86
2023-05-06T20:45:13.276Z,11.33
2023-05-06T20:47:40.285Z,11.14
2023-05-06T20:50:07.850Z,11.24
2023-05-06T20:52:36.802Z,11.06
2023-05-06T20:55:05.384Z,11.15
2023-05-06T20:57:32.834Z,11.41
2023-05-06T21:00:00.110Z,11.15
2023-05-06T21:02:34.441Z,11.25
2023-05-06T21:05:07.853Z,11.43
2023-05-06T21:07:34.622Z,11.66
2023-05-06T21:10:03.203Z,11.58
2023-05-06T21:12:29.702Z,11.72
2023-05-06T21:14:56.194Z,11.32
2023-05-06T21:17:22.767Z,10.93
2023-05-06T21:19:52.495Z,10.86
2023-05-06T21:22:23.282Z,11.08
2023-05-06T21:24:50.678Z,11.35
2023-05-06T21:27:17.159Z,11.68
2023-05-06T21:29:43.623Z,11.25
2023-05-06T21:32:10.202Z,10.75
2023-05-06T21:34:36.644Z,10.97
2023-05-06T21:37:03.185Z,10.73
2023-05-06T21:39:29.691Z,11.45
2023-05-06T21:41:56.518Z,11.02
2023-05-06T21:44:22.983Z,11.44
2023-05-06T21:46:49.549Z,11.01
2023-05-06T21:49:16.143Z,10.92
2023-05-06T21:51:42.623Z,11.23
2023-05-06T21:54:09.206Z,10.63
2023-05-06T21:56:35.776Z,11.02
2023-05-06T21:59:02.195Z,10.98
2023-05-06T22:01:29.256Z,10.85
2023-05-06T22:03:56.020Z,11.19
2023-05-06T22:06:22.678Z,10.58
2023-05-06T22:08:49.163Z,11.10
2023-05-06T22:11:15.916Z,10.79
2023-05-06T22:13:42.446Z,10.60
2023-05-06T22:20:33.092Z,11.26
2023-05-06T22:22:59.535Z,10.43
2023-05-06T22:25:26.241Z,10.97
2023-05-06T22:27:52.707Z,10.67
2023-05-06T22:30:19.188Z,11.06
2023-05-06T22:32:45.685Z,10.72
2023-05-06T22:35:12.461Z,10.88
2023-05-06T22:37:39.189Z,11.34
2023-05-06T22:40:07.175Z,10.91
2023-05-06T22:42:33.630Z,11.18
2023-05-06T22:45:00.143Z,11.10
2023-05-06T22:47:26.811Z,10.76
2023-05-06T22:49:53.325Z,10.94
2023-05-06T22:52:20.317Z,10.84
2023-05-06T22:54:47.034Z,10.58
2023-05-06T22:57:14.406Z,10.74
2023-05-06T22:59:40.924Z,11.01
2023-05-06T23:02:07.414Z,10.90
2023-05-06T23:04:33.898Z,10.47
2023-05-06T23:07:00.478Z,11.13
2023-05-06T23:09:26.962Z,11.40
2023-05-06T23:11:53.422Z,10.94
2023-05-06T23:14:19.929Z,11.34
2023-05-06T23:16:46.500Z,10.90
2023-05-06T23:19:12.926Z,11.74
2023-05-06T23:21:41.503Z,11.25
2023-05-06T23:24:08.818Z,11.38
2023-05-06T23:26:35.325Z,11.17
2023-05-06T23:29:01.810Z,10.74
2023-05-06T23:31:28.360Z,11.29
2023-05-06T23:33:54.866Z,10.92
2023-05-06T23:36:21.607Z,11.01
2023-05-06T23:38:48.051Z,11.13
2023-05-06T23:41:14.538Z,10.87
2023-05-06T23:43:40.995Z,11.27
2023-05-06T23:46:07.500Z,11.43
2023-05-06T23:48:34.452Z,11.22
2023-05-06T23:51:00.980Z,11.14
2023-05-06T23:53:27.464Z,11.42
2023-05-06T23:55:54.033Z,11.07
2023-05-06T23:58:20.652Z,11.26
